Time;durP1;ratioP1;P1;durP2;ratioP2;P2;SDS_P1;SDS_P2;PMS_P1;PMS_P2;Temp;Humidity;BMP_temperature;BMP_pressure;BME280_temperature;BME280_humidity;BME280_pressure;Samples;Min_cycle;Max_cycle;Signal;HPM_P1;HPM_P2
2022/10/22 00:02:22;;;;;;;20.57;17.57;;;;;;;11.23;80.05;100426.41;1613695;88;21070;-76
2022/10/22 00:05:08;;;;;;;19.30;17.25;;;;;;;11.24;80.13;100426.82;1623833;87;21100;-76
2022/10/22 00:07:53;;;;;;;18.92;17.02;;;;;;;11.25;80.14;100428.52;1615654;88;20954;-76
2022/10/22 00:10:38;;;;;;;20.82;16.55;;;;;;;11.25;80.16;100426.78;1624922;88;21480;-76
2022/10/22 00:13:23;;;;;;;18.00;15.78;;;;;;;11.25;80.24;100429.38;1634423;86;21562;-76
2022/10/22 00:16:08;;;;;;;18.30;16.15;;;;;;;11.27;80.32;100440.98;1636511;86;21143;-76
2022/10/22 00:18:53;;;;;;;18.20;16.30;;;;;;;11.27;80.31;100437.11;1639091;87;21067;-76
2022/10/22 00:21:39;;;;;;;18.92;16.87;;;;;;;11.28;80.38;100442.25;1642095;85;21101;-76
2022/10/22 00:24:25;;;;;;;23.13;20.73;;;;;;;11.28;80.41;100439.66;1644924;87;21131;-76
2022/10/22 00:27:11;;;;;;;25.02;21.50;;;;;;;11.18;80.45;100420.04;1642239;86;21495;-76
2022/10/22 00:29:56;;;;;;;27.60;20.97;;;;;;;11.27;80.51;100432.78;1625421;86;21097;-76
2022/10/22 00:32:41;;;;;;;27.75;23.12;;;;;;;11.28;80.50;100440.10;1626160;88;21045;-76
2022/10/22 00:35:26;;;;;;;28.25;22.77;;;;;;;11.27;80.50;100437.95;1639980;86;21150;-76
2022/10/22 00:38:11;;;;;;;26.05;23.15;;;;;;;11.27;80.54;100440.55;1636400;87;21102;-76
2022/10/22 00:40:57;;;;;;;26.17;22.67;;;;;;;11.28;80.60;100436.22;1610811;87;21532;-76
2022/10/22 00:44:04;;;;;;;29.20;24.05;;;;;;;11.28;80.66;100424.58;1630177;87;21323;-76
2022/10/22 00:46:50;;;;;;;28.90;24.45;;;;;;;11.28;80.74;100424.58;1635618;86;21102;-76
2022/10/22 00:49:35;;;;;;;29.35;23.47;;;;;;;11.27;80.73;100419.84;1622280;87;21417;-76
2022/10/22 00:52:22;;;;;;;28.57;23.38;;;;;;;11.28;80.80;100407.75;1627292;87;21554;-76
2022/10/22 00:55:08;;;;;;;31.17;24.55;;;;;;;11.27;80.77;100410.78;1636154;86;21131;-76
2022/10/22 00:57:55;;;;;;;29.20;23.00;;;;;;;11.26;80.78;100416.84;1635671;87;21070;-76
2022/10/22 01:00:41;;;;;;;29.95;23.98;;;;;;;11.25;80.82;100412.55;1637838;87;22241;-76
2022/10/22 01:03:27;;;;;;;32.50;25.43;;;;;;;11.25;80.87;100409.11;1631461;86;22215;-76
2022/10/22 01:06:28;;;;;;;33.60;26.02;;;;;;;11.19;80.93;100398.45;1633231;87;21782;-76
2022/10/22 01:09:42;;;;;;;28.00;23.87;;;;;;;11.23;80.94;100418.20;1629641;86;21122;-76
2022/10/22 01:13:03;;;;;;;33.65;24.77;;;;;;;11.22;80.94;100406.14;1643237;87;21441;-76
2022/10/22 01:15:58;;;;;;;36.58;24.18;;;;;;;11.22;80.98;100397.09;1637192;86;20984;-76
2022/10/22 01:19:00;;;;;;;37.98;25.50;;;;;;;11.20;81.02;100396.71;1636198;86;20960;-76
2022/10/22 01:21:53;;;;;;;30.05;24.30;;;;;;;11.20;81.04;100394.98;1650314;86;20916;-76
2022/10/22 01:25:25;;;;;;;31.95;23.85;;;;;;;11.19;81.06;100394.56;1641418;86;20927;-76
2022/10/22 01:28:59;;;;;;;30.23;24.07;;;;;;;11.20;81.12;100384.62;1648767;86;20931;-75
2022/10/22 01:31:55;;;;;;;36.55;24.90;;;;;;;11.19;81.14;100375.59;1640304;86;20976;-76
2022/10/22 01:34:44;;;;;;;38.20;25.15;;;;;;;11.17;81.19;100361.40;1625337;87;20962;-76
2022/10/22 01:37:32;;;;;;;31.17;24.57;;;;;;;11.18;81.18;100375.19;1648934;86;20979;-76
2022/10/22 01:40:19;;;;;;;32.45;25.72;;;;;;;11.17;81.18;100375.63;1629244;86;21537;-76
2022/10/22 01:43:07;;;;;;;31.07;24.35;;;;;;;11.17;81.18;100377.37;1636169;86;21014;-76
2022/10/22 01:45:57;;;;;;;32.98;26.33;;;;;;;11.17;81.22;100375.63;1635155;87;21104;-76
2022/10/22 01:49:16;;;;;;;35.30;26.62;;;;;;;11.16;81.22;100372.64;1633674;87;21144;-76
2022/10/22 01:52:18;;;;;;;37.85;26.45;;;;;;;11.17;81.28;100375.63;1609210;88;21116;-76
2022/10/22 01:55:28;;;;;;;39.00;27.67;;;;;;;11.18;81.27;100371.31;1628072;86;21046;-76
2022/10/22 01:58:50;;;;;;;34.23;27.45;;;;;;;11.17;81.33;100373.05;1622799;86;21076;-76
2022/10/22 02:02:05;;;;;;;39.13;27.82;;;;;;;11.17;81.38;100369.16;1612516;88;21514;-76
2022/10/22 02:05:32;;;;;;;39.45;28.05;;;;;;;11.16;81.42;100367.46;1637970;86;21691;-76
2022/10/22 02:08:24;;;;;;;35.58;27.07;;;;;;;11.16;81.46;100382.98;1636410;87;21435;-76
2022/10/22 02:11:12;;;;;;;41.90;28.25;;;;;;;11.16;81.52;100392.48;1592627;88;21009;-76
2022/10/22 02:14:00;;;;;;;37.03;26.85;;;;;;;11.15;81.55;100392.08;1626627;87;21601;-76
2022/10/22 02:16:48;;;;;;;36.93;26.27;;;;;;;11.16;81.57;100382.14;1622625;87;21622;-76
2022/10/22 02:19:45;;;;;;;35.10;25.02;;;;;;;11.15;81.59;100390.78;1611088;87;21120;-76
2022/10/22 02:22:30;;;;;;;;;;;;;;;11.15;81.62;100379.99;1636549;87;21065;-76
2022/10/22 02:25:16;;;;;;;33.73;23.22;;;;;;;11.14;81.80;100386.05;1628427;86;20202;-76
2022/10/22 02:28:18;;;;;;;39.20;25.15;;;;;;;11.15;81.66;100403.72;1626517;87;21521;-76
2022/10/22 02:31:14;;;;;;;37.67;26.12;;;;;;;11.14;81.72;100405.91;1605683;87;21103;-76
2022/10/22 02:34:06;;;;;;;37.88;25.15;;;;;;;11.14;81.74;100410.64;1633676;87;21592;-76
2022/10/22 02:36:53;;;;;;;33.95;24.52;;;;;;;11.14;81.79;100398.14;1625140;86;21420;-76
2022/10/22 02:39:39;;;;;;;32.93;25.27;;;;;;;11.15;81.83;100385.16;1593355;88;21610;-76
2022/10/22 02:42:25;;;;;;;36.83;24.77;;;;;;;11.14;81.79;100391.67;1608217;88;21084;-76
2022/10/22 02:45:11;;;;;;;31.62;24.43;;;;;;;11.14;81.88;100387.34;1587261;86;21153;-76
2022/10/22 02:47:56;;;;;;;36.03;24.15;;;;;;;11.15;81.90;100390.34;1576981;88;21088;-76
2022/10/22 02:50:41;;;;;;;37.78;24.80;;;;;;;11.15;81.95;100395.96;1570715;90;21092;-76
2022/10/22 02:53:26;;;;;;;33.90;24.50;;;;;;;11.15;81.99;100400.70;1587236;88;21154;-76
2022/10/22 02:56:13;;;;;;;34.98;23.90;;;;;;;11.14;81.96;100404.61;1600081;89;21072;-76
2022/10/22 02:58:58;;;;;;;34.85;22.73;;;;;;;11.15;82.00;100410.19;1608981;89;21662;-76
2022/10/22 03:01:43;;;;;;;33.53;23.83;;;;;;;11.16;82.04;100405.42;1597352;88;21144;-76
2022/10/22 03:04:28;;;;;;;35.80;23.12;;;;;;;11.16;82.08;100403.69;1591759;88;21124;-76
2022/10/22 03:07:13;;;;;;;39.48;24.10;;;;;;;11.16;82.14;100410.16;1592803;88;21553;-76
2022/10/22 03:09:58;;;;;;;40.58;24.43;;;;;;;11.17;82.18;100415.75;1599618;89;21090;-76
2022/10/22 03:12:43;;;;;;;35.65;23.18;;;;;;;11.18;82.12;100427.80;1583506;90;21205;-76
2022/10/22 03:15:28;;;;;;;35.45;24.82;;;;;;;11.19;82.23;100429.95;1594545;88;21037;-76
2022/10/22 03:18:13;;;;;;;44.90;26.65;;;;;;;11.19;82.20;100430.80;1577231;88;21052;-76
2022/10/22 03:21:16;;;;;;;45.40;26.15;;;;;;;11.19;82.24;100436.42;1602944;89;21141;-76
2022/10/22 03:24:05;;;;;;;44.25;25.97;;;;;;;11.18;82.27;100434.27;1583537;88;21628;-76
2022/10/22 03:26:51;;;;;;;39.45;25.57;;;;;;;11.20;82.28;100425.19;1605422;89;21065;-76
2022/10/22 03:29:39;;;;;;;38.17;26.60;;;;;;;11.19;82.30;100429.95;1584321;88;21431;-76
2022/10/22 03:32:24;;;;;;;40.63;27.27;;;;;;;11.18;82.39;100423.92;1590260;88;21457;-76
2022/10/22 03:35:09;;;;;;;40.67;25.70;;;;;;;11.19;82.38;100417.86;1593729;89;20981;-76
2022/10/22 03:37:54;;;;;;;41.00;26.60;;;;;;;11.20;82.40;100409.21;1601844;87;21388;-76
2022/10/22 03:40:41;;;;;;;42.38;27.65;;;;;;;11.21;82.42;100402.30;1606573;89;20970;-76
2022/10/22 03:43:27;;;;;;;50.90;28.90;;;;;;;11.20;82.42;100394.98;1585764;90;21285;-76
2022/10/22 03:46:11;;;;;;;45.48;28.42;;;;;;;11.22;82.39;100386.73;1591485;88;21462;-76
2022/10/22 03:48:56;;;;;;;43.98;27.95;;;;;;;11.23;82.51;100385.00;1645408;87;20928;-76
2022/10/22 03:51:41;;;;;;;42.27;25.77;;;;;;;11.23;82.53;100379.37;1612121;86;20929;-76
2022/10/22 03:54:26;;;;;;;51.55;27.67;;;;;;;11.24;82.50;100384.11;1640733;87;21563;-76
2022/10/22 03:57:12;;;;;;;43.10;26.97;;;;;;;11.25;82.48;100393.58;1643475;85;20936;-76
2022/10/22 03:59:57;;;;;;;46.33;27.58;;;;;;;11.25;82.54;100406.52;1640219;86;21492;-76
2022/10/22 04:02:42;;;;;;;43.68;27.13;;;;;;;11.25;82.59;100407.38;1605203;87;21046;-76
2022/10/22 04:05:27;;;;;;;45.63;26.25;;;;;;;11.26;82.57;100405.20;1645533;86;21519;-76
2022/10/22 04:08:11;;;;;;;43.58;26.97;;;;;;;11.27;82.58;100393.10;1641482;86;20948;-76
2022/10/22 04:10:57;;;;;;;40.58;25.12;;;;;;;11.27;82.61;100386.19;1638987;86;20943;-76
2022/10/22 04:13:42;;;;;;;39.50;24.70;;;;;;;11.27;82.61;100387.92;1626178;86;20967;-76
2022/10/22 04:16:30;;;;;;;43.70;26.30;;;;;;;11.28;82.61;100389.63;1612078;87;20929;-76
2022/10/22 04:19:14;;;;;;;39.38;24.63;;;;;;;11.28;82.68;100393.52;1636009;85;21786;-77
2022/10/22 04:21:59;;;;;;;43.70;26.20;;;;;;;11.30;82.68;100392.19;1643084;87;20975;-77
2022/10/22 04:24:44;;;;;;;43.28;26.68;;;;;;;11.31;82.68;100392.16;1635674;86;20976;-77
2022/10/22 04:27:31;;;;;;;41.42;25.35;;;;;;;11.32;82.71;100395.59;1634178;87;20971;-75
2022/10/22 04:30:16;;;;;;;39.63;25.27;;;;;;;11.32;82.74;100399.47;1648347;86;20920;-75
2022/10/22 04:33:01;;;;;;;41.88;26.45;;;;;;;11.33;82.75;100398.59;1622159;87;20985;-75
2022/10/22 04:35:46;;;;;;;45.08;27.32;;;;;;;11.33;82.78;100407.65;1647038;85;20950;-76
2022/10/22 04:38:30;;;;;;;53.13;29.02;;;;;;;11.33;82.80;100402.47;1638741;86;21009;-76
2022/10/22 04:41:19;;;;;;;53.75;28.83;;;;;;;11.35;82.86;100406.73;1628799;88;20953;-76
2022/10/22 04:44:06;;;;;;;53.63;30.17;;;;;;;11.35;82.89;100405.88;1624406;88;20914;-76
2022/10/22 04:46:50;;;;;;;52.95;30.05;;;;;;;11.35;82.92;100405.88;1580135;89;20967;-75
2022/10/22 04:49:35;;;;;;;59.35;29.85;;;;;;;11.36;82.92;100411.46;1611785;87;21017;-75
2022/10/22 04:52:20;;;;;;;49.27;29.63;;;;;;;11.35;82.97;100418.38;1603446;88;20982;-76
2022/10/22 04:55:06;;;;;;;54.93;30.45;;;;;;;11.36;83.00;100423.97;1614436;87;20982;-76
2022/10/22 04:57:50;;;;;;;52.10;29.07;;;;;;;11.36;83.03;100430.88;1612076;87;20925;-76
2022/10/22 05:00:35;;;;;;;56.63;30.35;;;;;;;11.37;83.07;100426.11;1613717;87;20995;-76
2022/10/22 05:03:20;;;;;;;51.23;29.45;;;;;;;11.37;83.08;100428.26;1605433;88;20989;-76
2022/10/22 05:06:06;;;;;;;54.63;29.72;;;;;;;11.37;83.15;100437.77;1592344;87;21005;-76
2022/10/22 05:08:58;;;;;;;50.23;30.55;;;;;;;11.37;83.13;100448.97;1577037;90;21602;-76
2022/10/22 05:11:47;;;;;;;53.87;28.52;;;;;;;11.37;83.18;100439.91;1610119;88;20945;-76
2022/10/22 05:14:32;;;;;;;48.92;29.40;;;;;;;11.38;83.17;100430.41;1594222;87;21406;-76
2022/10/22 05:17:17;;;;;;;52.80;30.35;;;;;;;11.38;83.20;100429.96;1617971;87;20934;-76
2022/10/22 05:20:06;;;;;;;55.52;30.88;;;;;;;11.39;83.20;100434.70;1588300;90;21422;-76
2022/10/22 05:22:51;;;;;;;54.80;29.98;;;;;;;11.40;83.22;100433.81;1606310;87;21450;-76
2022/10/22 05:25:39;;;;;;;52.83;29.95;;;;;;;11.41;83.30;100434.22;1617831;87;21644;-76
2022/10/22 05:28:24;;;;;;;59.10;30.62;;;;;;;11.41;83.29;100435.52;1614327;87;20989;-76
2022/10/22 05:31:12;;;;;;;52.83;30.77;;;;;;;11.42;83.31;100435.92;1610981;87;20949;-76
2022/10/22 05:33:57;;;;;;;52.35;30.37;;;;;;;11.42;83.34;100430.30;1608360;87;21330;-77
2022/10/22 05:36:42;;;;;;;56.83;29.50;;;;;;;11.44;83.37;100423.77;1613882;87;21422;-77
2022/10/22 05:39:28;;;;;;;48.85;29.40;;;;;;;11.45;83.39;100422.88;1613933;87;20950;-77
2022/10/22 05:42:12;;;;;;;53.38;29.72;;;;;;;11.45;83.39;100413.81;1615882;87;20974;-77
2022/10/22 05:44:58;;;;;;;46.18;28.38;;;;;;;11.45;83.37;100425.02;1614090;87;21501;-76
2022/10/22 05:47:43;;;;;;;51.68;28.90;;;;;;;11.46;83.39;100423.28;1615269;87;20974;-76
2022/10/22 05:50:28;;;;;;;47.50;28.92;;;;;;;11.48;83.43;100452.59;1612673;85;20957;-77
2022/10/22 05:53:13;;;;;;;46.42;28.73;;;;;;;11.48;83.49;100465.09;1611430;87;20941;-77
2022/10/22 05:56:08;;;;;;;48.02;28.67;;;;;;;11.50;83.51;100466.34;1605335;88;21427;-77
2022/10/22 05:58:53;;;;;;;49.75;27.80;;;;;;;11.51;83.50;100468.91;1601630;87;20949;-77
2022/10/22 06:01:39;;;;;;;52.70;28.90;;;;;;;11.52;83.53;100460.69;1603781;88;20974;-77
2022/10/22 06:04:23;;;;;;;54.50;29.25;;;;;;;11.51;83.53;100452.08;1608196;87;21462;-77
2022/10/22 06:07:12;;;;;;;52.43;28.67;;;;;;;11.53;83.55;100449.01;1608864;87;21017;-77
2022/10/22 06:09:58;;;;;;;55.45;29.10;;;;;;;11.53;83.59;100449.45;1604589;87;20970;-76
2022/10/22 06:12:43;;;;;;;54.77;29.33;;;;;;;11.54;83.62;100455.89;1638477;85;20938;-76
2022/10/22 06:15:28;;;;;;;47.50;27.67;;;;;;;11.55;83.62;100448.97;1638138;86;21634;-76
2022/10/22 06:18:13;;;;;;;54.25;29.27;;;;;;;11.57;83.62;100444.61;1636101;86;20958;-76
2022/10/22 06:21:08;;;;;;;53.23;29.52;;;;;;;11.57;83.63;100458.41;1637738;84;21412;-76
2022/10/22 06:23:56;;;;;;;51.13;29.32;;;;;;;11.58;83.68;100460.12;1638533;86;21427;-76
2022/10/22 06:26:41;;;;;;;51.15;28.02;;;;;;;11.61;83.69;100473.44;1607878;87;21045;-75
2022/10/22 06:29:25;;;;;;;52.23;28.02;;;;;;;11.62;83.77;100473.84;1634673;85;21022;-75
2022/10/22 06:32:10;;;;;;;53.35;28.25;;;;;;;11.64;83.74;100472.08;1635108;86;21410;-75
2022/10/22 06:34:56;;;;;;;54.35;29.72;;;;;;;11.66;83.86;100481.95;1612201;87;20953;-80
2022/10/22 06:37:41;;;;;;;50.08;27.77;;;;;;;11.67;83.87;100488.84;1629877;85;20947;-80
2022/10/22 06:40:26;;;;;;;55.73;28.65;;;;;;;11.70;83.84;100490.06;1636340;85;20938;-80
2022/10/22 06:43:13;;;;;;;58.95;30.70;;;;;;;11.72;83.82;100484.85;1612587;88;21483;-80
2022/10/22 06:46:03;;;;;;;55.20;29.42;;;;;;;11.73;83.89;100477.05;1633415;86;20970;-80
2022/10/22 06:48:59;;;;;;;56.20;28.87;;;;;;;11.76;83.86;100471.80;1626072;86;21423;-79
2022/10/22 06:51:44;;;;;;;61.88;29.85;;;;;;;11.79;83.92;100476.94;1592175;88;20986;-80
2022/10/22 06:54:29;;;;;;;62.85;28.83;;;;;;;11.83;83.94;100488.94;1620061;88;20926;-80
2022/10/22 06:57:14;;;;;;;57.95;28.40;;;;;;;11.87;83.93;100489.72;1625091;88;20938;-80
2022/10/22 06:59:59;;;;;;;59.03;30.12;;;;;;;11.89;83.99;100495.27;1621883;87;21671;-80
2022/10/22 07:02:44;;;;;;;62.25;31.27;;;;;;;11.92;83.97;100484.84;1626339;87;21432;-80
2022/10/22 07:05:29;;;;;;;60.08;30.12;;;;;;;11.95;84.01;100489.55;1592523;88;21058;-80
2022/10/22 07:08:13;;;;;;;55.43;28.12;;;;;;;11.98;83.97;100488.14;1587884;88;21040;-80
2022/10/22 07:11:11;;;;;;;71.05;29.35;;;;;;;12.00;84.03;100493.70;1590057;88;20997;-80
2022/10/22 07:13:58;;;;;;;60.10;29.00;;;;;;;12.03;84.02;100490.18;1591055;88;20996;-80
2022/10/22 07:16:45;;;;;;;61.65;29.48;;;;;;;12.06;84.11;100484.48;1557032;89;20994;-80
2022/10/22 07:19:30;;;;;;;;;;;;;;;12.10;84.14;100494.33;1594874;89;21002;-80
2022/10/22 07:22:15;;;;;;;58.17;28.27;;;;;;;12.13;84.25;100507.22;1608699;88;20572;-80
2022/10/22 07:24:59;;;;;;;64.95;29.05;;;;;;;12.15;84.19;100516.66;1589873;89;20946;-80
2022/10/22 07:27:44;;;;;;;59.50;30.45;;;;;;;12.17;84.18;100521.80;1589105;88;21498;-79
2022/10/22 07:30:30;;;;;;;56.28;29.67;;;;;;;12.20;84.21;100529.52;1575482;90;21610;-79
2022/10/22 07:33:15;;;;;;;67.42;28.90;;;;;;;12.22;84.17;100522.55;1590146;88;21657;-79
2022/10/22 07:36:03;;;;;;;65.40;30.32;;;;;;;12.24;84.20;100519.03;1590796;88;21733;-79
2022/10/22 07:38:53;;;;;;;60.75;29.10;;;;;;;12.26;84.23;100522.88;1587832;88;21069;-76
2022/10/22 07:41:38;;;;;;;58.90;29.50;;;;;;;12.28;84.29;100519.81;1603938;88;21125;-76
2022/10/22 07:44:23;;;;;;;52.62;28.38;;;;;;;12.30;84.35;100515.44;1579747;90;21080;-76
2022/10/22 07:47:08;;;;;;;59.90;28.17;;;;;;;12.30;84.31;100515.44;1593045;87;21682;-76
2022/10/22 07:49:53;;;;;;;56.28;28.30;;;;;;;12.33;84.33;100511.92;1609935;88;21044;-76
2022/10/22 07:52:39;;;;;;;54.45;26.82;;;;;;;12.36;84.37;100517.88;1619825;87;22245;-76
2022/10/22 07:55:24;;;;;;;55.33;28.32;;;;;;;12.38;84.38;100516.10;1614861;88;21005;-76
2022/10/22 07:58:09;;;;;;;62.45;29.10;;;;;;;12.40;84.43;100525.99;1613313;88;21089;-76
2022/10/22 08:00:57;;;;;;;61.13;29.37;;;;;;;12.43;84.40;100528.95;1605764;88;21077;-76
2022/10/22 08:03:42;;;;;;;59.30;29.00;;;;;;;12.44;84.38;100529.36;1615250;87;21001;-75
2022/10/22 08:06:27;;;;;;;64.77;30.70;;;;;;;12.45;84.47;100530.62;1603339;87;20958;-75
2022/10/22 08:09:12;;;;;;;65.45;31.17;;;;;;;12.49;84.49;100532.22;1608773;88;20910;-76
2022/10/22 08:11:57;;;;;;;62.70;29.70;;;;;;;12.50;84.49;100533.92;1606188;87;20942;-76
2022/10/22 08:14:42;;;;;;;68.28;32.75;;;;;;;12.52;84.55;100531.28;1613571;87;21545;-76
2022/10/22 08:17:28;;;;;;;68.52;32.67;;;;;;;12.56;84.54;100527.72;1604444;88;20925;-77
2022/10/22 08:20:13;;;;;;;69.20;32.45;;;;;;;12.58;84.56;100511.23;1608376;87;21069;-79
2022/10/22 08:22:58;;;;;;;66.62;31.93;;;;;;;12.63;84.57;100512.41;1613404;87;21439;-79
2022/10/22 08:25:43;;;;;;;63.25;31.23;;;;;;;12.66;84.64;100521.86;1611120;87;21040;-78
2022/10/22 08:28:30;;;;;;;70.05;32.85;;;;;;;12.69;84.64;100526.52;1605093;87;21145;-76
2022/10/22 08:31:14;;;;;;;65.47;30.88;;;;;;;12.72;84.69;100526.89;1609405;88;21112;-81
2022/10/22 08:33:59;;;;;;;67.95;30.90;;;;;;;12.74;84.68;100521.22;1610085;87;21101;-79
2022/10/22 08:36:44;;;;;;;59.38;28.40;;;;;;;12.77;84.69;100522.43;1602466;88;21576;-77
2022/10/22 08:39:30;;;;;;;59.90;27.62;;;;;;;12.80;84.71;100528.84;1587751;88;21053;-77
2022/10/22 08:42:49;;;;;;;57.15;25.55;;;;;;;12.83;84.69;100530.91;1606318;87;21121;-75
2022/10/22 08:45:48;;;;;;;52.90;24.95;;;;;;;12.85;84.70;100542.55;1581914;89;21129;-75
2022/10/22 08:48:53;;;;;;;53.50;24.63;;;;;;;12.84;84.73;100540.39;1609827;87;21135;-75
2022/10/22 08:51:42;;;;;;;51.30;23.67;;;;;;;12.85;84.79;100542.09;1608114;87;21704;-75
2022/10/22 08:54:41;;;;;;;55.45;24.30;;;;;;;12.87;84.79;100549.84;1569324;88;21108;-75
2022/10/22 08:57:47;;;;;;;52.67;23.12;;;;;;;12.89;84.82;100542.87;1606585;87;21653;-75
2022/10/22 09:00:37;;;;;;;49.80;23.12;;;;;;;12.90;84.82;100548.46;1611621;86;21112;-77
2022/10/22 09:03:33;;;;;;;52.23;23.30;;;;;;;12.92;84.88;100546.68;1605527;87;21005;-77
2022/10/22 09:06:23;;;;;;;51.95;23.30;;;;;;;12.92;84.78;100551.88;1611934;87;21061;-77
2022/10/22 09:09:15;;;;;;;54.10;21.73;;;;;;;12.93;84.90;100563.51;1600948;87;21099;-77
2022/10/22 09:12:03;;;;;;;61.00;23.27;;;;;;;12.95;84.90;100557.42;1625031;86;21060;-77
2022/10/22 09:14:48;;;;;;;46.63;22.45;;;;;;;12.96;84.95;100555.23;1631130;86;21114;-76
2022/10/22 09:17:42;;;;;;;59.53;23.62;;;;;;;12.97;84.96;100559.53;1636891;86;20989;-76
2022/10/22 09:20:36;;;;;;;49.67;22.77;;;;;;;12.99;84.98;100556.45;1635795;86;21624;-76
2022/10/22 09:23:52;;;;;;;53.68;23.02;;;;;;;13.02;85.01;100556.34;1645628;86;21556;-76
2022/10/22 09:26:40;;;;;;;51.68;21.93;;;;;;;13.05;85.04;100557.55;1638963;86;21077;-75
2022/10/22 09:29:32;;;;;;;51.80;22.48;;;;;;;13.07;85.02;100556.63;1632468;86;20982;-75
2022/10/22 09:32:18;;;;;;;62.30;27.25;;;;;;;13.09;84.92;100561.77;1631604;87;20910;-75
2022/10/22 09:35:04;;;;;;;107.75;55.65;;;;;;;13.10;85.00;100565.63;1633196;86;21066;-75
2022/10/22 09:37:53;;;;;;;77.35;41.68;;;;;;;13.13;85.05;100557.75;1632238;85;21062;-76
2022/10/22 09:40:46;;;;;;;69.20;32.98;;;;;;;13.15;85.03;100561.16;1639342;86;21109;-76
2022/10/22 09:43:34;;;;;;;70.67;29.57;;;;;;;13.17;85.07;100563.30;1608680;87;21080;-76
2022/10/22 09:46:24;;;;;;;60.50;26.15;;;;;;;13.19;85.11;100564.11;1635509;86;21593;-76
2022/10/22 09:49:16;;;;;;;66.77;27.87;;;;;;;13.21;85.07;100569.27;1635420;87;21525;-77
2022/10/22 09:52:02;;;;;;;69.53;29.45;;;;;;;13.21;85.11;100563.63;1634551;86;20980;-77
2022/10/22 09:54:50;;;;;;;80.47;39.83;;;;;;;13.21;85.08;100561.47;1645024;86;20959;-77
2022/10/22 09:57:35;;;;;;;63.58;30.00;;;;;;;13.21;85.13;100561.47;1631022;86;21482;-77
2022/10/22 10:00:23;;;;;;;99.03;56.10;;;;;;;13.23;85.15;100570.07;1643026;86;20970;-77
2022/10/22 10:03:17;;;;;;;131.60;77.82;;;;;;;13.24;85.21;100569.17;1639684;85;20936;-77
2022/10/22 10:06:03;;;;;;;87.97;47.20;;;;;;;13.25;85.21;100573.03;1646342;85;21368;-77
2022/10/22 10:08:49;;;;;;;70.00;33.28;;;;;;;13.27;85.19;100577.33;1642306;85;20987;-77
2022/10/22 10:11:48;;;;;;;68.72;31.05;;;;;;;13.27;85.23;100579.48;1644522;85;21394;-77
2022/10/22 10:15:19;;;;;;;69.97;29.57;;;;;;;13.27;85.21;100581.23;1636738;85;21039;-77
2022/10/22 10:18:36;;;;;;;56.60;26.65;;;;;;;13.27;85.28;100576.89;1645817;85;20983;-77
2022/10/22 10:21:48;;;;;;;59.90;25.80;;;;;;;13.28;85.19;100581.62;1519941;86;5001098;-77
2022/10/22 10:24:55;;;;;;;55.83;25.95;;;;;;;13.28;85.21;100588.98;1592411;86;66107;-77
2022/10/22 10:28:06;;;;;;;50.00;24.75;;;;;;;13.25;85.19;100589.91;1614891;86;5001218;-76
2022/10/22 10:31:23;;;;;;;46.28;23.45;;;;;;;13.27;85.20;100596.36;1640260;86;20946;-76
2022/10/22 10:34:28;;;;;;;44.77;21.52;;;;;;;13.26;85.17;100593.36;1620055;87;20937;-76
2022/10/22 10:37:26;;;;;;;33.70;20.35;;;;;;;13.26;85.26;100595.95;1620167;86;20922;-76
2022/10/22 10:40:20;;;;;;;38.75;20.27;;;;;;;13.25;85.26;100593.80;1637907;86;20962;-76
2022/10/22 10:43:34;;;;;;;32.40;17.95;;;;;;;13.25;85.26;100591.66;1637406;86;20977;-76
2022/10/22 10:46:51;;;;;;;34.25;17.87;;;;;;;13.25;85.32;100590.36;1617504;87;20972;-76
2022/10/22 10:49:36;;;;;;;26.15;15.60;;;;;;;13.24;85.34;100590.80;1638056;86;21064;-76
2022/10/22 10:52:32;;;;;;;25.08;14.98;;;;;;;13.24;85.31;100587.36;1637164;86;21113;-76
2022/10/22 10:55:31;;;;;;;23.05;14.05;;;;;;;13.22;85.32;100587.39;1639721;87;21100;-76
2022/10/22 10:58:40;;;;;;;23.98;14.43;;;;;;;13.23;85.35;100590.40;1640288;87;21049;-76
2022/10/22 11:01:36;;;;;;;25.68;14.60;;;;;;;13.23;85.38;100589.10;1613279;87;21045;-76
2022/10/22 11:04:54;;;;;;;34.98;22.37;;;;;;;13.25;85.41;100584.72;1619306;87;21557;-76
2022/10/22 11:07:53;;;;;;;25.77;16.77;;;;;;;13.26;85.45;100584.27;1614169;87;21090;-76
2022/10/22 11:11:05;;;;;;;29.05;20.92;;;;;;;13.27;85.40;100584.67;1615902;86;21094;-76
2022/10/22 11:14:01;;;;;;;29.80;20.37;;;;;;;13.28;85.40;100580.33;1613511;85;21023;-76
2022/10/22 11:16:52;;;;;;;;;;;;;;;13.29;85.42;100574.25;1620342;87;21195;-76
2022/10/22 11:19:54;;;;;;;27.70;17.60;;;;;;;13.31;85.59;100575.91;1621352;85;20220;-76
2022/10/22 11:23:02;;;;;;;23.27;18.55;;;;;;;13.33;85.50;100579.31;1634502;86;21108;-76
2022/10/22 11:25:50;;;;;;;21.23;16.67;;;;;;;13.36;85.53;100577.93;1634719;85;21582;-76
2022/10/22 11:28:41;;;;;;;20.97;17.35;;;;;;;13.38;85.52;100576.59;1631845;87;21089;-76
2022/10/22 11:31:29;;;;;;;21.20;17.20;;;;;;;13.41;85.52;100572.61;1635404;87;21108;-76
2022/10/22 11:34:37;;;;;;;25.12;20.20;;;;;;;13.44;85.54;100571.22;1595886;88;21032;-77
2022/10/22 11:37:23;;;;;;;23.35;18.60;;;;;;;13.46;85.57;100573.33;1619249;87;21426;-75
2022/10/22 11:40:36;;;;;;;20.60;16.10;;;;;;;13.49;85.60;100575.84;1633828;87;20930;-75
2022/10/22 11:43:30;;;;;;;31.30;25.68;;;;;;;13.52;85.60;100578.31;1615535;87;33441;-75
2022/10/22 11:46:20;;;;;;;24.52;19.32;;;;;;;13.56;85.59;100570.39;1635063;87;20910;-75
2022/10/22 11:49:16;;;;;;;20.43;16.87;;;;;;;13.64;85.69;100568.02;1635786;85;20942;-75
2022/10/22 11:52:32;;;;;;;35.88;25.75;;;;;;;13.72;85.68;100571.25;1615335;87;20973;-75
2022/10/22 11:55:50;;;;;;;42.20;26.97;;;;;;;13.80;85.68;100572.72;1636643;86;20954;-75
2022/10/22 11:58:48;;;;;;;31.60;21.45;;;;;;;13.86;85.67;100571.69;1615075;88;20982;-75
2022/10/22 12:01:41;;;;;;;25.17;20.25;;;;;;;13.91;85.62;100568.05;1627824;87;20941;-75
2022/10/22 12:04:40;;;;;;;29.27;22.82;;;;;;;13.89;85.61;100571.15;1630762;87;20933;-75
2022/10/22 12:07:47;;;;;;;19.12;15.35;;;;;;;13.87;85.55;100566.89;1638440;87;20966;-75
2022/10/22 12:10:58;;;;;;;17.23;15.08;;;;;;;13.85;85.58;100564.34;1639310;87;21012;-76
2022/10/22 12:14:23;;;;;;;16.32;14.30;;;;;;;13.85;85.62;100556.99;1614318;87;20926;-76
2022/10/22 12:17:14;;;;;;;18.50;14.15;;;;;;;13.85;85.68;100560.44;1609989;87;20941;-76
2022/10/22 12:20:12;;;;;;;15.60;13.90;;;;;;;13.84;85.71;100557.89;1617627;87;20940;-76
2022/10/22 12:22:59;;;;;;;15.43;13.00;;;;;;;13.83;85.63;100554.44;1616571;87;21596;-76
2022/10/22 12:25:43;;;;;;;;;;;;;;;13.81;85.62;100560.13;1622485;86;21467;-75
2022/10/22 12:28:28;;;;;;;15.65;13.70;;;;;;;13.80;85.78;100560.18;1637986;87;20261;-75
2022/10/22 12:31:16;;;;;;;16.85;13.15;;;;;;;13.79;85.65;100555.87;1631824;86;21096;-75
2022/10/22 12:34:01;;;;;;;18.52;15.15;;;;;;;13.78;85.68;100563.27;1612011;88;21133;-75
2022/10/22 12:36:48;;;;;;;17.25;15.00;;;;;;;13.75;85.68;100555.11;1637114;87;22335;-75
2022/10/22 12:39:34;;;;;;;19.85;15.10;;;;;;;13.73;85.69;100558.20;1635973;86;21115;-75
2022/10/22 12:42:20;;;;;;;17.45;14.75;;;;;;;13.72;85.68;100563.45;1614514;87;21106;-75
2022/10/22 12:45:06;;;;;;;17.48;13.83;;;;;;;13.72;85.68;100564.75;1633578;87;21574;-76
2022/10/22 12:47:58;;;;;;;22.07;16.55;;;;;;;13.70;85.67;100564.80;1614047;87;21028;-76
2022/10/22 12:50:53;;;;;;;20.37;15.55;;;;;;;13.68;85.67;100563.98;1615320;87;21056;-76
2022/10/22 12:53:49;;;;;;;18.52;15.90;;;;;;;13.67;85.62;100563.59;1597778;88;21091;-76
2022/10/22 12:56:37;;;;;;;19.40;15.70;;;;;;;13.66;85.73;100568.83;1605968;88;22306;-76
2022/10/22 12:59:34;;;;;;;20.32;15.25;;;;;;;13.65;85.72;100566.67;1593537;88;21134;-76